sensor_id;sensor_type;location;lat;lon;timestamp;pressure;altitude;pressure_sealevel;temperature
70969;BMP280;58630;43.022;25.100;2023-12-20T00:00:02;;;;6.20
70969;BMP280;58630;43.022;25.100;2023-12-20T00:02:28;;;;6.20
70969;BMP280;58630;43.022;25.100;2023-12-20T00:04:54;;;;6.20
70969;BMP280;58630;43.022;25.100;2023-12-20T00:07:19;;;;6.20
70969;BMP280;58630;43.022;25.100;2023-12-20T00:09:45;;;;6.20
70969;BMP280;58630;43.022;25.100;2023-12-20T00:12:10;;;;6.20
70969;BMP280;58630;43.022;25.100;2023-12-20T00:14:36;;;;6.20
70969;BMP280;58630;43.022;25.100;2023-12-20T00:17:02;;;;6.20
70969;BMP280;58630;43.022;25.100;2023-12-20T00:19:27;;;;6.20
70969;BMP280;58630;43.022;25.100;2023-12-20T00:21:53;;;;6.10
70969;BMP280;58630;43.022;25.100;2023-12-20T00:24:18;;;;6.10
70969;BMP280;58630;43.022;25.100;2023-12-20T00:26:44;;;;6.10
70969;BMP280;58630;43.022;25.100;2023-12-20T00:29:09;;;;6.10
70969;BMP280;58630;43.022;25.100;2023-12-20T00:31:35;;;;6.10
70969;BMP280;58630;43.022;25.100;2023-12-20T00:34:01;;;;6.10
70969;BMP280;58630;43.022;25.100;2023-12-20T00:36:26;;;;6.10
70969;BMP280;58630;43.022;25.100;2023-12-20T00:38:52;;;;6.10
70969;BMP280;58630;43.022;25.100;2023-12-20T00:41:18;;;;6.10
70969;BMP280;58630;43.022;25.100;2023-12-20T00:43:43;;;;6.00
70969;BMP280;58630;43.022;25.100;2023-12-20T00:46:09;;;;6.00
70969;BMP280;58630;43.022;25.100;2023-12-20T00:48:35;;;;6.00
70969;BMP280;58630;43.022;25.100;2023-12-20T00:51:00;;;;6.00
70969;BMP280;58630;43.022;25.100;2023-12-20T00:53:26;;;;6.00
70969;BMP280;58630;43.022;25.100;2023-12-20T00:55:51;;;;6.00
70969;BMP280;58630;43.022;25.100;2023-12-20T00:58:17;;;;6.00
70969;BMP280;58630;43.022;25.100;2023-12-20T01:00:42;;;;6.00
70969;BMP280;58630;43.022;25.100;2023-12-20T01:03:09;;;;6.00
70969;BMP280;58630;43.022;25.100;2023-12-20T01:05:34;;;;6.00
70969;BMP280;58630;43.022;25.100;2023-12-20T01:08:00;;;;6.00
70969;BMP280;58630;43.022;25.100;2023-12-20T01:10:28;;;;5.90
70969;BMP280;58630;43.022;25.100;2023-12-20T01:12:54;;;;5.90
70969;BMP280;58630;43.022;25.100;2023-12-20T01:15:20;;;;5.90
70969;BMP280;58630;43.022;25.100;2023-12-20T01:17:45;;;;5.90
70969;BMP280;58630;43.022;25.100;2023-12-20T01:20:11;;;;5.90
70969;BMP280;58630;43.022;25.100;2023-12-20T01:22:36;;;;5.90
70969;BMP280;58630;43.022;25.100;2023-12-20T01:25:02;;;;5.90
70969;BMP280;58630;43.022;25.100;2023-12-20T01:27:28;;;;5.90
70969;BMP280;58630;43.022;25.100;2023-12-20T01:29:53;;;;5.90
70969;BMP280;58630;43.022;25.100;2023-12-20T01:32:19;;;;5.80
70969;BMP280;58630;43.022;25.100;2023-12-20T01:34:45;;;;5.90
70969;BMP280;58630;43.022;25.100;2023-12-20T01:37:10;;;;5.80
70969;BMP280;58630;43.022;25.100;2023-12-20T01:39:36;;;;5.80
70969;BMP280;58630;43.022;25.100;2023-12-20T01:42:01;;;;5.80
70969;BMP280;58630;43.022;25.100;2023-12-20T01:44:27;;;;5.80
70969;BMP280;58630;43.022;25.100;2023-12-20T01:46:53;;;;5.80
70969;BMP280;58630;43.022;25.100;2023-12-20T01:49:18;;;;5.80
70969;BMP280;58630;43.022;25.100;2023-12-20T01:51:44;;;;5.80
70969;BMP280;58630;43.022;25.100;2023-12-20T01:54:10;;;;5.80
70969;BMP280;58630;43.022;25.100;2023-12-20T01:56:36;;;;5.80
70969;BMP280;58630;43.022;25.100;2023-12-20T01:59:01;;;;5.70
70969;BMP280;58630;43.022;25.100;2023-12-20T02:01:27;;;;5.70
70969;BMP280;58630;43.022;25.100;2023-12-20T02:03:53;;;;5.70
70969;BMP280;58630;43.022;25.100;2023-12-20T02:06:20;;;;5.70
70969;BMP280;58630;43.022;25.100;2023-12-20T02:08:46;;;;5.70
70969;BMP280;58630;43.022;25.100;2023-12-20T02:11:12;;;;5.70
70969;BMP280;58630;43.022;25.100;2023-12-20T02:13:38;;;;5.70
70969;BMP280;58630;43.022;25.100;2023-12-20T02:16:03;;;;5.70
70969;BMP280;58630;43.022;25.100;2023-12-20T02:18:29;;;;5.70
70969;BMP280;58630;43.022;25.100;2023-12-20T02:20:55;;;;5.60
70969;BMP280;58630;43.022;25.100;2023-12-20T02:23:21;;;;5.70
70969;BMP280;58630;43.022;25.100;2023-12-20T02:25:47;;;;5.70
70969;BMP280;58630;43.022;25.100;2023-12-20T02:28:12;;;;5.60
70969;BMP280;58630;43.022;25.100;2023-12-20T02:30:38;;;;5.60
70969;BMP280;58630;43.022;25.100;2023-12-20T02:33:04;;;;5.60
70969;BMP280;58630;43.022;25.100;2023-12-20T02:35:33;;;;5.60
70969;BMP280;58630;43.022;25.100;2023-12-20T02:37:58;;;;5.60
70969;BMP280;58630;43.022;25.100;2023-12-20T02:40:24;;;;5.60
70969;BMP280;58630;43.022;25.100;2023-12-20T02:42:49;;;;5.60
70969;BMP280;58630;43.022;25.100;2023-12-20T02:45:15;;;;5.60
70969;BMP280;58630;43.022;25.100;2023-12-20T02:47:40;;;;5.60
70969;BMP280;58630;43.022;25.100;2023-12-20T02:50:06;;;;5.50
70969;BMP280;58630;43.022;25.100;2023-12-20T02:52:31;;;;5.50
70969;BMP280;58630;43.022;25.100;2023-12-20T02:54:57;;;;5.50
70969;BMP280;58630;43.022;25.100;2023-12-20T02:57:22;;;;5.50
70969;BMP280;58630;43.022;25.100;2023-12-20T02:59:48;;;;5.50
70969;BMP280;58630;43.022;25.100;2023-12-20T03:02:14;;;;5.50
70969;BMP280;58630;43.022;25.100;2023-12-20T03:04:39;;;;5.50
70969;BMP280;58630;43.022;25.100;2023-12-20T03:07:05;;;;5.50
70969;BMP280;58630;43.022;25.100;2023-12-20T03:09:30;;;;5.50
70969;BMP280;58630;43.022;25.100;2023-12-20T03:11:56;;;;5.50
70969;BMP280;58630;43.022;25.100;2023-12-20T03:14:21;;;;5.50
70969;BMP280;58630;43.022;25.100;2023-12-20T03:16:50;;;;5.50
70969;BMP280;58630;43.022;25.100;2023-12-20T03:19:16;;;;5.50
70969;BMP280;58630;43.022;25.100;2023-12-20T03:21:42;;;;5.50
70969;BMP280;58630;43.022;25.100;2023-12-20T03:24:08;;;;5.40
70969;BMP280;58630;43.022;25.100;2023-12-20T03:26:33;;;;5.40
70969;BMP280;58630;43.022;25.100;2023-12-20T03:28:59;;;;5.40
70969;BMP280;58630;43.022;25.100;2023-12-20T03:31:24;;;;5.40
70969;BMP280;58630;43.022;25.100;2023-12-20T03:33:50;;;;5.40
70969;BMP280;58630;43.022;25.100;2023-12-20T03:36:17;;;;5.40
70969;BMP280;58630;43.022;25.100;2023-12-20T03:38:42;;;;5.40
70969;BMP280;58630;43.022;25.100;2023-12-20T03:41:08;;;;5.40
70969;BMP280;58630;43.022;25.100;2023-12-20T03:43:33;;;;5.40
70969;BMP280;58630;43.022;25.100;2023-12-20T03:45:59;;;;5.40
70969;BMP280;58630;43.022;25.100;2023-12-20T03:48:25;;;;5.40
70969;BMP280;58630;43.022;25.100;2023-12-20T03:50:50;;;;5.40
70969;BMP280;58630;43.022;25.100;2023-12-20T03:53:16;;;;5.30
70969;BMP280;58630;43.022;25.100;2023-12-20T03:55:42;;;;5.30
70969;BMP280;58630;43.022;25.100;2023-12-20T03:58:07;;;;5.30
70969;BMP280;58630;43.022;25.100;2023-12-20T04:00:33;;;;5.30
70969;BMP280;58630;43.022;25.100;2023-12-20T04:02:58;;;;5.30
70969;BMP280;58630;43.022;25.100;2023-12-20T04:05:24;;;;5.30
70969;BMP280;58630;43.022;25.100;2023-12-20T04:07:49;;;;5.30
70969;BMP280;58630;43.022;25.100;2023-12-20T04:10:15;;;;5.30
70969;BMP280;58630;43.022;25.100;2023-12-20T04:12:41;;;;5.30
70969;BMP280;58630;43.022;25.100;2023-12-20T04:15:06;;;;5.30
70969;BMP280;58630;43.022;25.100;2023-12-20T04:17:34;;;;5.20
70969;BMP280;58630;43.022;25.100;2023-12-20T04:20:00;;;;5.20
70969;BMP280;58630;43.022;25.100;2023-12-20T04:22:26;;;;5.20
70969;BMP280;58630;43.022;25.100;2023-12-20T04:24:51;;;;5.20
70969;BMP280;58630;43.022;25.100;2023-12-20T04:27:17;;;;5.20
70969;BMP280;58630;43.022;25.100;2023-12-20T04:29:42;;;;5.20
70969;BMP280;58630;43.022;25.100;2023-12-20T04:32:08;;;;5.20
70969;BMP280;58630;43.022;25.100;2023-12-20T04:34:33;;;;5.20
70969;BMP280;58630;43.022;25.100;2023-12-20T04:36:59;;;;5.20
70969;BMP280;58630;43.022;25.100;2023-12-20T04:39:26;;;;5.20
70969;BMP280;58630;43.022;25.100;2023-12-20T04:41:52;;;;5.20
70969;BMP280;58630;43.022;25.100;2023-12-20T04:44:18;;;;5.20
70969;BMP280;58630;43.022;25.100;2023-12-20T04:46:44;;;;5.10
70969;BMP280;58630;43.022;25.100;2023-12-20T04:49:09;;;;5.10
70969;BMP280;58630;43.022;25.100;2023-12-20T04:51:35;;;;5.10
70969;BMP280;58630;43.022;25.100;2023-12-20T04:54:01;;;;5.10
70969;BMP280;58630;43.022;25.100;2023-12-20T04:56:26;;;;5.10
70969;BMP280;58630;43.022;25.100;2023-12-20T04:58:52;;;;5.10
70969;BMP280;58630;43.022;25.100;2023-12-20T05:01:17;;;;5.10
70969;BMP280;58630;43.022;25.100;2023-12-20T05:03:43;;;;5.10
70969;BMP280;58630;43.022;25.100;2023-12-20T05:06:09;;;;5.10
70969;BMP280;58630;43.022;25.100;2023-12-20T05:08:34;;;;5.10
70969;BMP280;58630;43.022;25.100;2023-12-20T05:11:00;;;;5.10
70969;BMP280;58630;43.022;25.100;2023-12-20T05:13:26;;;;5.00
70969;BMP280;58630;43.022;25.100;2023-12-20T05:15:51;;;;5.00
70969;BMP280;58630;43.022;25.100;2023-12-20T05:18:17;;;;5.00
70969;BMP280;58630;43.022;25.100;2023-12-20T05:20:42;;;;5.00
70969;BMP280;58630;43.022;25.100;2023-12-20T05:23:08;;;;5.00
70969;BMP280;58630;43.022;25.100;2023-12-20T05:25:33;;;;5.00
70969;BMP280;58630;43.022;25.100;2023-12-20T05:27:59;;;;5.00
70969;BMP280;58630;43.022;25.100;2023-12-20T05:30:24;;;;5.00
70969;BMP280;58630;43.022;25.100;2023-12-20T05:32:50;;;;5.00
70969;BMP280;58630;43.022;25.100;2023-12-20T05:35:16;;;;5.00
70969;BMP280;58630;43.022;25.100;2023-12-20T05:37:42;;;;5.00
70969;BMP280;58630;43.022;25.100;2023-12-20T05:40:08;;;;5.00
70969;BMP280;58630;43.022;25.100;2023-12-20T05:42:36;;;;5.00
70969;BMP280;58630;43.022;25.100;2023-12-20T05:45:02;;;;5.00
70969;BMP280;58630;43.022;25.100;2023-12-20T05:47:27;;;;5.00
70969;BMP280;58630;43.022;25.100;2023-12-20T05:49:53;;;;5.00
70969;BMP280;58630;43.022;25.100;2023-12-20T05:52:18;;;;5.00
70969;BMP280;58630;43.022;25.100;2023-12-20T05:54:44;;;;5.00
70969;BMP280;58630;43.022;25.100;2023-12-20T05:57:09;;;;5.00
70969;BMP280;58630;43.022;25.100;2023-12-20T05:59:35;;;;5.00
70969;BMP280;58630;43.022;25.100;2023-12-20T06:02:00;;;;4.90
70969;BMP280;58630;43.022;25.100;2023-12-20T06:04:26;;;;5.00
70969;BMP280;58630;43.022;25.100;2023-12-20T06:06:51;;;;5.00
70969;BMP280;58630;43.022;25.100;2023-12-20T06:09:17;;;;4.90
70969;BMP280;58630;43.022;25.100;2023-12-20T06:11:43;;;;5.00
70969;BMP280;58630;43.022;25.100;2023-12-20T06:14:08;;;;4.90
70969;BMP280;58630;43.022;25.100;2023-12-20T06:16:34;;;;4.90
70969;BMP280;58630;43.022;25.100;2023-12-20T06:18:59;;;;4.90
70969;BMP280;58630;43.022;25.100;2023-12-20T06:21:25;;;;4.90
70969;BMP280;58630;43.022;25.100;2023-12-20T06:23:50;;;;4.90
70969;BMP280;58630;43.022;25.100;2023-12-20T06:26:16;;;;4.90
70969;BMP280;58630;43.022;25.100;2023-12-20T06:28:41;;;;4.90
70969;BMP280;58630;43.022;25.100;2023-12-20T06:31:07;;;;4.90
70969;BMP280;58630;43.022;25.100;2023-12-20T06:33:32;;;;4.90
70969;BMP280;58630;43.022;25.100;2023-12-20T06:35:58;;;;4.90
70969;BMP280;58630;43.022;25.100;2023-12-20T06:38:24;;;;4.90
70969;BMP280;58630;43.022;25.100;2023-12-20T06:40:49;;;;4.90
70969;BMP280;58630;43.022;25.100;2023-12-20T06:43:15;;;;4.90
70969;BMP280;58630;43.022;25.100;2023-12-20T06:45:40;;;;5.00
70969;BMP280;58630;43.022;25.100;2023-12-20T06:48:06;;;;4.90
70969;BMP280;58630;43.022;25.100;2023-12-20T06:50:31;;;;5.00
70969;BMP280;58630;43.022;25.100;2023-12-20T06:52:57;;;;5.00
70969;BMP280;58630;43.022;25.100;2023-12-20T06:55:23;;;;4.90
70969;BMP280;58630;43.022;25.100;2023-12-20T06:57:48;;;;5.00
70969;BMP280;58630;43.022;25.100;2023-12-20T07:00:14;;;;5.00
70969;BMP280;58630;43.022;25.100;2023-12-20T07:02:40;;;;5.00
70969;BMP280;58630;43.022;25.100;2023-12-20T07:05:05;;;;5.00
70969;BMP280;58630;43.022;25.100;2023-12-20T07:07:31;;;;5.00
70969;BMP280;58630;43.022;25.100;2023-12-20T07:09:57;;;;5.00
70969;BMP280;58630;43.022;25.100;2023-12-20T07:12:22;;;;5.00
70969;BMP280;58630;43.022;25.100;2023-12-20T07:14:48;;;;5.00
70969;BMP280;58630;43.022;25.100;2023-12-20T07:17:13;;;;5.00
70969;BMP280;58630;43.022;25.100;2023-12-20T07:19:40;;;;5.00
70969;BMP280;58630;43.022;25.100;2023-12-20T07:22:06;;;;5.00
70969;BMP280;58630;43.022;25.100;2023-12-20T07:24:32;;;;5.00
70969;BMP280;58630;43.022;25.100;2023-12-20T07:26:59;;;;5.00
70969;BMP280;58630;43.022;25.100;2023-12-20T07:29:24;;;;5.00
70969;BMP280;58630;43.022;25.100;2023-12-20T07:31:50;;;;5.00
70969;BMP280;58630;43.022;25.100;2023-12-20T07:34:17;;;;5.00
70969;BMP280;58630;43.022;25.100;2023-12-20T07:36:43;;;;5.00
70969;BMP280;58630;43.022;25.100;2023-12-20T07:39:08;;;;5.00
70969;BMP280;58630;43.022;25.100;2023-12-20T07:41:34;;;;5.00
70969;BMP280;58630;43.022;25.100;2023-12-20T07:43:59;;;;5.00
70969;BMP280;58630;43.022;25.100;2023-12-20T07:46:25;;;;5.00
70969;BMP280;58630;43.022;25.100;2023-12-20T07:48:50;;;;5.00
70969;BMP280;58630;43.022;25.100;2023-12-20T07:51:16;;;;5.00
70969;BMP280;58630;43.022;25.100;2023-12-20T07:53:42;;;;5.00
70969;BMP280;58630;43.022;25.100;2023-12-20T07:56:17;;;;5.00
70969;BMP280;58630;43.022;25.100;2023-12-20T07:58:43;;;;5.00
70969;BMP280;58630;43.022;25.100;2023-12-20T08:01:10;;;;5.10
70969;BMP280;58630;43.022;25.100;2023-12-20T08:03:35;;;;5.10
70969;BMP280;58630;43.022;25.100;2023-12-20T08:06:01;;;;5.10
70969;BMP280;58630;43.022;25.100;2023-12-20T08:08:27;;;;5.10
70969;BMP280;58630;43.022;25.100;2023-12-20T08:10:53;;;;5.10
70969;BMP280;58630;43.022;25.100;2023-12-20T08:13:19;;;;5.10
70969;BMP280;58630;43.022;25.100;2023-12-20T08:15:44;;;;5.10
70969;BMP280;58630;43.022;25.100;2023-12-20T08:18:10;;;;5.10
70969;BMP280;58630;43.022;25.100;2023-12-20T08:20:35;;;;5.10
70969;BMP280;58630;43.022;25.100;2023-12-20T08:23:01;;;;5.10
70969;BMP280;58630;43.022;25.100;2023-12-20T08:25:26;;;;5.10
70969;BMP280;58630;43.022;25.100;2023-12-20T08:27:52;;;;5.10
70969;BMP280;58630;43.022;25.100;2023-12-20T08:30:18;;;;5.10
70969;BMP280;58630;43.022;25.100;2023-12-20T08:32:47;;;;5.10
70969;BMP280;58630;43.022;25.100;2023-12-20T08:35:13;;;;5.20
70969;BMP280;58630;43.022;25.100;2023-12-20T08:37:38;;;;5.20
70969;BMP280;58630;43.022;25.100;2023-12-20T08:40:04;;;;5.20
70969;BMP280;58630;43.022;25.100;2023-12-20T08:42:30;;;;5.20
70969;BMP280;58630;43.022;25.100;2023-12-20T08:44:59;;;;5.20
70969;BMP280;58630;43.022;25.100;2023-12-20T08:47:24;;;;5.20
70969;BMP280;58630;43.022;25.100;2023-12-20T08:49:50;;;;5.20
70969;BMP280;58630;43.022;25.100;2023-12-20T08:52:16;;;;5.20
70969;BMP280;58630;43.022;25.100;2023-12-20T08:54:41;;;;5.20
70969;BMP280;58630;43.022;25.100;2023-12-20T08:57:07;;;;5.20
70969;BMP280;58630;43.022;25.100;2023-12-20T08:59:33;;;;5.20
70969;BMP280;58630;43.022;25.100;2023-12-20T09:01:58;;;;5.20
70969;BMP280;58630;43.022;25.100;2023-12-20T09:04:24;;;;5.20
70969;BMP280;58630;43.022;25.100;2023-12-20T09:06:50;;;;5.20
70969;BMP280;58630;43.022;25.100;2023-12-20T09:09:16;;;;5.30
70969;BMP280;58630;43.022;25.100;2023-12-20T09:11:41;;;;5.30
70969;BMP280;58630;43.022;25.100;2023-12-20T09:14:07;;;;5.30
70969;BMP280;58630;43.022;25.100;2023-12-20T09:16:33;;;;5.30
70969;BMP280;58630;43.022;25.100;2023-12-20T09:18:58;;;;5.30
70969;BMP280;58630;43.022;25.100;2023-12-20T09:21:24;;;;5.30
70969;BMP280;58630;43.022;25.100;2023-12-20T09:23:50;;;;5.30
70969;BMP280;58630;43.022;25.100;2023-12-20T09:26:15;;;;5.30
70969;BMP280;58630;43.022;25.100;2023-12-20T09:28:41;;;;5.30
70969;BMP280;58630;43.022;25.100;2023-12-20T09:31:06;;;;5.30
70969;BMP280;58630;43.022;25.100;2023-12-20T09:33:35;;;;5.40
70969;BMP280;58630;43.022;25.100;2023-12-20T09:36:00;;;;5.40
70969;BMP280;58630;43.022;25.100;2023-12-20T09:38:26;;;;5.40
70969;BMP280;58630;43.022;25.100;2023-12-20T09:40:51;;;;5.40
70969;BMP280;58630;43.022;25.100;2023-12-20T09:43:18;;;;5.50
70969;BMP280;58630;43.022;25.100;2023-12-20T09:45:45;;;;5.50
70969;BMP280;58630;43.022;25.100;2023-12-20T09:48:11;;;;5.50
70969;BMP280;58630;43.022;25.100;2023-12-20T09:50:37;;;;5.50
70969;BMP280;58630;43.022;25.100;2023-12-20T09:53:03;;;;5.50
70969;BMP280;58630;43.022;25.100;2023-12-20T09:55:30;;;;5.60
70969;BMP280;58630;43.022;25.100;2023-12-20T09:57:55;;;;5.60
70969;BMP280;58630;43.022;25.100;2023-12-20T10:00:21;;;;5.60
70969;BMP280;58630;43.022;25.100;2023-12-20T10:02:50;;;;5.60
70969;BMP280;58630;43.022;25.100;2023-12-20T10:05:18;;;;5.60
70969;BMP280;58630;43.022;25.100;2023-12-20T10:07:48;;;;5.60
70969;BMP280;58630;43.022;25.100;2023-12-20T10:10:13;;;;5.70
70969;BMP280;58630;43.022;25.100;2023-12-20T10:12:39;;;;5.70
70969;BMP280;58630;43.022;25.100;2023-12-20T10:15:05;;;;5.70
70969;BMP280;58630;43.022;25.100;2023-12-20T10:17:31;;;;5.70
70969;BMP280;58630;43.022;25.100;2023-12-20T10:20:15;;;;5.70
70969;BMP280;58630;43.022;25.100;2023-12-20T10:22:41;;;;5.70
70969;BMP280;58630;43.022;25.100;2023-12-20T10:25:07;;;;5.70
70969;BMP280;58630;43.022;25.100;2023-12-20T10:27:33;;;;5.70
70969;BMP280;58630;43.022;25.100;2023-12-20T10:29:59;;;;5.70
70969;BMP280;58630;43.022;25.100;2023-12-20T10:32:25;;;;5.70
70969;BMP280;58630;43.022;25.100;2023-12-20T10:34:54;;;;5.70
70969;BMP280;58630;43.022;25.100;2023-12-20T10:37:20;;;;5.70
70969;BMP280;58630;43.022;25.100;2023-12-20T10:39:52;;;;5.80
70969;BMP280;58630;43.022;25.100;2023-12-20T10:42:21;;;;5.80
70969;BMP280;58630;43.022;25.100;2023-12-20T10:44:48;;;;5.80
70969;BMP280;58630;43.022;25.100;2023-12-20T10:47:15;;;;5.80
70969;BMP280;58630;43.022;25.100;2023-12-20T10:49:40;;;;5.80
70969;BMP280;58630;43.022;25.100;2023-12-20T10:52:07;;;;5.90
70969;BMP280;58630;43.022;25.100;2023-12-20T10:54:33;;;;5.90
70969;BMP280;58630;43.022;25.100;2023-12-20T10:56:58;;;;5.90
70969;BMP280;58630;43.022;25.100;2023-12-20T10:59:25;;;;5.90
70969;BMP280;58630;43.022;25.100;2023-12-20T11:01:53;;;;5.90
70969;BMP280;58630;43.022;25.100;2023-12-20T11:04:21;;;;5.90
70969;BMP280;58630;43.022;25.100;2023-12-20T11:06:53;;;;5.90
70969;BMP280;58630;43.022;25.100;2023-12-20T11:11:55;;;;5.90
70969;BMP280;58630;43.022;25.100;2023-12-20T11:14:41;;;;6.00
70969;BMP280;58630;43.022;25.100;2023-12-20T11:17:10;;;;6.00
70969;BMP280;58630;43.022;25.100;2023-12-20T11:22:25;;;;6.00
70969;BMP280;58630;43.022;25.100;2023-12-20T11:24:51;;;;6.00
70969;BMP280;58630;43.022;25.100;2023-12-20T11:27:18;;;;6.10
70969;BMP280;58630;43.022;25.100;2023-12-20T11:29:43;;;;6.10
70969;BMP280;58630;43.022;25.100;2023-12-20T11:37:32;;;;6.10
70969;BMP280;58630;43.022;25.100;2023-12-20T11:40:16;;;;6.20
70969;BMP280;58630;43.022;25.100;2023-12-20T11:42:42;;;;6.20
70969;BMP280;58630;43.022;25.100;2023-12-20T11:45:13;;;;6.20
70969;BMP280;58630;43.022;25.100;2023-12-20T11:47:40;;;;6.20
70969;BMP280;58630;43.022;25.100;2023-12-20T11:50:06;;;;6.30
70969;BMP280;58630;43.022;25.100;2023-12-20T11:52:32;;;;6.30
70969;BMP280;58630;43.022;25.100;2023-12-20T11:54:57;;;;6.40
70969;BMP280;58630;43.022;25.100;2023-12-20T11:57:23;;;;6.50
70969;BMP280;58630;43.022;25.100;2023-12-20T11:59:48;;;;6.50
70969;BMP280;58630;43.022;25.100;2023-12-20T12:02:14;;;;6.60
70969;BMP280;58630;43.022;25.100;2023-12-20T12:04:43;;;;6.70
70969;BMP280;58630;43.022;25.100;2023-12-20T12:07:08;;;;6.90
70969;BMP280;58630;43.022;25.100;2023-12-20T12:09:34;;;;7.10
70969;BMP280;58630;43.022;25.100;2023-12-20T12:12:00;;;;7.30
70969;BMP280;58630;43.022;25.100;2023-12-20T12:14:25;;;;7.50
70969;BMP280;58630;43.022;25.100;2023-12-20T12:16:51;;;;7.70
70969;BMP280;58630;43.022;25.100;2023-12-20T12:19:25;;;;7.90
70969;BMP280;58630;43.022;25.100;2023-12-20T12:21:51;;;;8.10
70969;BMP280;58630;43.022;25.100;2023-12-20T12:24:20;;;;8.20
70969;BMP280;58630;43.022;25.100;2023-12-20T12:26:49;;;;8.30
70969;BMP280;58630;43.022;25.100;2023-12-20T12:29:15;;;;8.50
70969;BMP280;58630;43.022;25.100;2023-12-20T12:31:41;;;;8.60
70969;BMP280;58630;43.022;25.100;2023-12-20T12:34:06;;;;8.70
70969;BMP280;58630;43.022;25.100;2023-12-20T12:36:34;;;;8.90
70969;BMP280;58630;43.022;25.100;2023-12-20T12:39:03;;;;9.10
70969;BMP280;58630;43.022;25.100;2023-12-20T12:41:31;;;;9.40
70969;BMP280;58630;43.022;25.100;2023-12-20T12:43:57;;;;9.60
70969;BMP280;58630;43.022;25.100;2023-12-20T12:46:22;;;;9.80
70969;BMP280;58630;43.022;25.100;2023-12-20T12:48:48;;;;9.80
70969;BMP280;58630;43.022;25.100;2023-12-20T12:51:15;;;;9.80
70969;BMP280;58630;43.022;25.100;2023-12-20T12:53:41;;;;9.70
70969;BMP280;58630;43.022;25.100;2023-12-20T12:56:07;;;;9.50
70969;BMP280;58630;43.022;25.100;2023-12-20T12:58:33;;;;9.40
70969;BMP280;58630;43.022;25.100;2023-12-20T13:00:59;;;;9.20
70969;BMP280;58630;43.022;25.100;2023-12-20T13:03:24;;;;9.00
70969;BMP280;58630;43.022;25.100;2023-12-20T13:05:50;;;;8.90
70969;BMP280;58630;43.022;25.100;2023-12-20T13:08:15;;;;8.80
70969;BMP280;58630;43.022;25.100;2023-12-20T13:10:41;;;;8.70
70969;BMP280;58630;43.022;25.100;2023-12-20T13:13:07;;;;8.60
70969;BMP280;58630;43.022;25.100;2023-12-20T13:15:32;;;;8.50
70969;BMP280;58630;43.022;25.100;2023-12-20T13:17:58;;;;8.40
70969;BMP280;58630;43.022;25.100;2023-12-20T13:20:23;;;;8.40
70969;BMP280;58630;43.022;25.100;2023-12-20T13:22:49;;;;8.30
70969;BMP280;58630;43.022;25.100;2023-12-20T13:25:14;;;;8.30
70969;BMP280;58630;43.022;25.100;2023-12-20T13:27:41;;;;8.30
70969;BMP280;58630;43.022;25.100;2023-12-20T13:30:06;;;;8.30
70969;BMP280;58630;43.022;25.100;2023-12-20T13:32:32;;;;8.20
70969;BMP280;58630;43.022;25.100;2023-12-20T13:34:58;;;;8.20
70969;BMP280;58630;43.022;25.100;2023-12-20T13:37:23;;;;8.20
70969;BMP280;58630;43.022;25.100;2023-12-20T13:39:49;;;;8.20
70969;BMP280;58630;43.022;25.100;2023-12-20T13:42:14;;;;8.20
70969;BMP280;58630;43.022;25.100;2023-12-20T13:44:40;;;;8.20
70969;BMP280;58630;43.022;25.100;2023-12-20T13:47:05;;;;8.20
70969;BMP280;58630;43.022;25.100;2023-12-20T13:49:31;;;;8.10
70969;BMP280;58630;43.022;25.100;2023-12-20T13:51:57;;;;8.20
70969;BMP280;58630;43.022;25.100;2023-12-20T13:54:23;;;;8.10
70969;BMP280;58630;43.022;25.100;2023-12-20T13:56:49;;;;8.10
70969;BMP280;58630;43.022;25.100;2023-12-20T13:59:14;;;;8.10
70969;BMP280;58630;43.022;25.100;2023-12-20T14:01:40;;;;8.10
70969;BMP280;58630;43.022;25.100;2023-12-20T14:04:06;;;;8.10
70969;BMP280;58630;43.022;25.100;2023-12-20T14:06:33;;;;8.10
70969;BMP280;58630;43.022;25.100;2023-12-20T14:08:58;;;;8.10
70969;BMP280;58630;43.022;25.100;2023-12-20T14:11:28;;;;8.10
70969;BMP280;58630;43.022;25.100;2023-12-20T14:13:53;;;;8.10
70969;BMP280;58630;43.022;25.100;2023-12-20T14:16:26;;;;8.10
70969;BMP280;58630;43.022;25.100;2023-12-20T14:18:52;;;;8.10
70969;BMP280;58630;43.022;25.100;2023-12-20T14:21:17;;;;8.10
70969;BMP280;58630;43.022;25.100;2023-12-20T14:23:43;;;;8.10
70969;BMP280;58630;43.022;25.100;2023-12-20T14:26:09;;;;8.10
70969;BMP280;58630;43.022;25.100;2023-12-20T14:28:42;;;;8.10
70969;BMP280;58630;43.022;25.100;2023-12-20T14:31:08;;;;8.10
70969;BMP280;58630;43.022;25.100;2023-12-20T14:33:34;;;;8.10
70969;BMP280;58630;43.022;25.100;2023-12-20T14:35:59;;;;8.10
70969;BMP280;58630;43.022;25.100;2023-12-20T14:38:25;;;;8.10
70969;BMP280;58630;43.022;25.100;2023-12-20T14:40:51;;;;8.10
70969;BMP280;58630;43.022;25.100;2023-12-20T14:43:16;;;;8.10
70969;BMP280;58630;43.022;25.100;2023-12-20T14:45:42;;;;8.10
70969;BMP280;58630;43.022;25.100;2023-12-20T14:48:07;;;;8.10
70969;BMP280;58630;43.022;25.100;2023-12-20T14:50:33;;;;8.10
70969;BMP280;58630;43.022;25.100;2023-12-20T14:52:59;;;;8.10
70969;BMP280;58630;43.022;25.100;2023-12-20T14:55:25;;;;8.10
70969;BMP280;58630;43.022;25.100;2023-12-20T14:57:52;;;;8.10
70969;BMP280;58630;43.022;25.100;2023-12-20T15:00:18;;;;8.10
70969;BMP280;58630;43.022;25.100;2023-12-20T15:02:45;;;;8.10
70969;BMP280;58630;43.022;25.100;2023-12-20T15:05:11;;;;8.10
70969;BMP280;58630;43.022;25.100;2023-12-20T15:07:36;;;;8.10
70969;BMP280;58630;43.022;25.100;2023-12-20T15:10:02;;;;8.10
70969;BMP280;58630;43.022;25.100;2023-12-20T15:12:27;;;;8.10
70969;BMP280;58630;43.022;25.100;2023-12-20T15:14:53;;;;8.10
70969;BMP280;58630;43.022;25.100;2023-12-20T15:17:18;;;;8.10
70969;BMP280;58630;43.022;25.100;2023-12-20T15:19:44;;;;8.10
70969;BMP280;58630;43.022;25.100;2023-12-20T15:22:10;;;;8.10
70969;BMP280;58630;43.022;25.100;2023-12-20T15:24:38;;;;8.00
70969;BMP280;58630;43.022;25.100;2023-12-20T15:27:06;;;;8.10
70969;BMP280;58630;43.022;25.100;2023-12-20T15:29:31;;;;8.00
70969;BMP280;58630;43.022;25.100;2023-12-20T15:31:57;;;;8.00
70969;BMP280;58630;43.022;25.100;2023-12-20T15:34:23;;;;8.00
70969;BMP280;58630;43.022;25.100;2023-12-20T15:36:48;;;;8.00
70969;BMP280;58630;43.022;25.100;2023-12-20T15:39:14;;;;8.00
70969;BMP280;58630;43.022;25.100;2023-12-20T15:41:39;;;;8.00
70969;BMP280;58630;43.022;25.100;2023-12-20T15:44:05;;;;8.00
70969;BMP280;58630;43.022;25.100;2023-12-20T15:46:31;;;;8.00
70969;BMP280;58630;43.022;25.100;2023-12-20T15:48:57;;;;8.00
70969;BMP280;58630;43.022;25.100;2023-12-20T15:51:22;;;;8.00
70969;BMP280;58630;43.022;25.100;2023-12-20T15:53:48;;;;8.00
70969;BMP280;58630;43.022;25.100;2023-12-20T15:56:15;;;;8.00
70969;BMP280;58630;43.022;25.100;2023-12-20T15:58:40;;;;8.00
70969;BMP280;58630;43.022;25.100;2023-12-20T16:01:06;;;;8.00